createdAt,value
2018-02-25T00:02:11.675Z,9.77
2018-02-25T00:04:39.740Z,8.25
2018-02-25T00:07:07.795Z,9.20
2018-02-25T00:09:36.824Z,8.38
2018-02-25T00:12:05.759Z,8.15
2018-02-25T00:14:33.823Z,8.13
2018-02-25T00:17:01.891Z,8.45
2018-02-25T00:19:33.687Z,8.82
2018-02-25T00:22:01.735Z,6.90
2018-02-25T00:24:31.703Z,8.90
2018-02-25T00:26:59.747Z,9.75
2018-02-25T00:29:30.507Z,7.70
2018-02-25T00:32:03.331Z,8.32
2018-02-25T00:34:33.043Z,7.90
2018-02-25T00:37:01.212Z,8.07
2018-02-25T00:39:30.631Z,8.30
2018-02-25T00:41:59.652Z,8.35
2018-02-25T00:44:31.059Z,8.38
2018-02-25T00:47:06.737Z,8.60
2018-02-25T00:49:41.375Z,8.18
2018-02-25T00:52:11.371Z,9.80
2018-02-25T00:54:45.667Z,10.57
2018-02-25T00:57:14.864Z,8.88
2018-02-25T00:59:43.250Z,8.70
2018-02-25T01:02:13.651Z,9.27
2018-02-25T01:04:41.703Z,9.90
2018-02-25T01:07:14.667Z,7.37
2018-02-25T01:09:42.720Z,8.25
2018-02-25T01:12:12.460Z,7.50
2018-02-25T01:14:41.423Z,7.37
2018-02-25T01:17:20.223Z,9.30
2018-02-25T01:20:00.623Z,9.02
2018-02-25T01:22:28.699Z,10.10
2018-02-25T01:24:59.150Z,9.93
2018-02-25T01:27:27.583Z,8.90
2018-02-25T01:29:59.411Z,9.75
2018-02-25T01:32:33.063Z,8.13
2018-02-25T01:35:02.039Z,9.43
2018-02-25T01:37:31.059Z,6.03
2018-02-25T01:40:01.067Z,11.25
2018-02-25T01:42:33.747Z,9.70
2018-02-25T01:45:04.079Z,10.32
2018-02-25T01:47:53.343Z,9.18
2018-02-25T01:50:28.399Z,8.95
2018-02-25T01:52:56.467Z,8.68
2018-02-25T01:55:33.935Z,9.18
2018-02-25T01:58:02.075Z,9.70
2018-02-25T02:00:31.115Z,7.78
2018-02-25T02:02:59.159Z,9.25
2018-02-25T02:05:27.230Z,9.25
2018-02-25T02:07:55.279Z,8.70
2018-02-25T02:10:28.883Z,8.65
2018-02-25T02:13:14.991Z,9.85
2018-02-25T02:15:43.251Z,9.50
2018-02-25T02:18:13.395Z,9.27
2018-02-25T02:20:44.075Z,9.23
2018-02-25T02:23:16.619Z,8.07
2018-02-25T02:25:46.647Z,9.13
2018-02-25T02:28:14.715Z,8.93
2018-02-25T02:30:42.756Z,10.07
2018-02-25T02:33:27.844Z,8.38
2018-02-25T02:35:55.918Z,9.93
2018-02-25T02:38:25.554Z,10.05
2018-02-25T02:40:55.479Z,9.00
2018-02-25T02:43:33.379Z,8.60
2018-02-25T02:46:01.523Z,8.35
2018-02-25T02:48:30.194Z,9.18
2018-02-25T02:51:02.823Z,8.25
2018-02-25T02:53:36.055Z,8.63
2018-02-25T02:56:05.019Z,8.18
2018-02-25T02:58:34.023Z,8.27
2018-02-25T03:01:03.007Z,8.20
2018-02-25T03:03:37.263Z,8.65
2018-02-25T03:06:05.347Z,9.30
2018-02-25T03:08:46.891Z,10.15
2018-02-25T03:11:15.883Z,10.45
2018-02-25T03:13:46.595Z,9.98
2018-02-25T03:16:34.968Z,8.23
2018-02-25T03:19:19.967Z,6.68
2018-02-25T03:21:48.034Z,9.00
2018-02-25T03:24:17.077Z,8.68
2018-02-25T03:26:48.179Z,7.55
2018-02-25T03:29:22.627Z,8.48
2018-02-25T03:32:00.303Z,8.30
2018-02-25T03:34:35.331Z,8.57
2018-02-25T03:37:20.963Z,8.27
2018-02-25T03:39:54.662Z,8.23
2018-02-25T03:42:23.046Z,8.98
2018-02-25T03:44:53.134Z,8.70
2018-02-25T03:47:31.339Z,8.27
2018-02-25T03:50:05.135Z,9.88
2018-02-25T03:52:34.991Z,8.77
2018-02-25T03:55:06.404Z,8.57
2018-02-25T03:57:35.430Z,9.07
2018-02-25T04:00:07.199Z,9.43
2018-02-25T04:02:46.914Z,8.80
2018-02-25T04:05:32.271Z,10.15
2018-02-25T04:08:08.199Z,8.98
2018-02-25T04:10:42.838Z,9.02
2018-02-25T04:13:14.978Z,10.00
2018-02-25T04:15:44.078Z,9.95
2018-02-25T04:18:18.210Z,9.95
2018-02-25T04:20:50.307Z,9.15
2018-02-25T04:23:26.718Z,9.25
2018-02-25T04:26:14.745Z,9.32
2018-02-25T04:28:47.403Z,9.10
2018-02-25T04:31:27.780Z,9.70
2018-02-25T04:34:00.792Z,9.80
2018-02-25T04:36:33.574Z,9.18
2018-02-25T04:39:01.654Z,8.45
2018-02-25T04:41:29.886Z,9.70
2018-02-25T04:43:59.895Z,9.30
2018-02-25T04:46:28.898Z,9.13
2018-02-25T04:49:00.438Z,9.48
2018-02-25T04:51:28.494Z,9.18
2018-02-25T04:53:58.306Z,9.60
2018-02-25T04:56:27.158Z,9.98
2018-02-25T04:59:05.122Z,9.07
2018-02-25T05:01:38.130Z,8.20
2018-02-25T05:04:11.906Z,8.48
2018-02-25T05:06:43.353Z,11.65
2018-02-25T05:09:17.287Z,8.80
2018-02-25T05:11:45.562Z,8.75
2018-02-25T05:14:14.546Z,9.05
2018-02-25T05:16:44.574Z,8.68
2018-02-25T05:19:14.518Z,8.93
2018-02-25T05:21:42.581Z,9.48
2018-02-25T05:24:14.385Z,9.70
2018-02-25T05:26:44.114Z,8.82
2018-02-25T05:29:14.162Z,7.62
2018-02-25T05:31:43.102Z,10.30
2018-02-25T05:34:14.850Z,8.98
2018-02-25T05:36:43.646Z,10.32
2018-02-25T05:39:19.546Z,8.57
2018-02-25T05:41:51.234Z,9.05
2018-02-25T05:44:21.070Z,9.90
2018-02-25T05:46:49.130Z,9.32
2018-02-25T05:49:18.925Z,8.82
2018-02-25T05:51:53.393Z,9.32
2018-02-25T05:54:24.572Z,8.82
2018-02-25T05:56:52.602Z,8.20
2018-02-25T05:59:27.806Z,10.05
2018-02-25T06:01:56.606Z,11.68
2018-02-25T06:04:26.521Z,9.70
2018-02-25T06:06:55.469Z,8.80
2018-02-25T06:09:23.490Z,8.93
2018-02-25T06:11:53.458Z,10.73
2018-02-25T06:14:21.490Z,8.60
2018-02-25T06:16:50.509Z,9.73
2018-02-25T06:19:19.510Z,10.88
2018-02-25T06:21:51.081Z,10.13
2018-02-25T06:24:26.737Z,9.07
2018-02-25T06:26:59.746Z,8.90
2018-02-25T06:29:32.390Z,7.93
2018-02-25T06:32:01.193Z,8.18
2018-02-25T06:34:29.996Z,8.57
2018-02-25T06:36:58.023Z,8.90
2018-02-25T06:39:26.042Z,8.40
2018-02-25T06:41:54.086Z,8.48
2018-02-25T06:44:27.013Z,9.82
2018-02-25T06:46:55.057Z,9.27
2018-02-25T06:49:23.973Z,9.15
2018-02-25T06:52:00.106Z,9.65
2018-02-25T06:54:35.006Z,7.43
2018-02-25T06:57:07.273Z,8.30
2018-02-25T06:59:35.347Z,8.80
2018-02-25T07:02:05.213Z,8.57
2018-02-25T07:04:38.889Z,8.30
2018-02-25T07:07:09.618Z,9.00
2018-02-25T07:09:37.649Z,8.98
2018-02-25T07:12:05.670Z,9.70
2018-02-25T07:14:33.694Z,9.52
2018-02-25T07:17:01.733Z,10.70
2018-02-25T07:19:34.441Z,9.60
2018-02-25T07:22:03.565Z,10.13
2018-02-25T07:24:32.345Z,9.20
2018-02-25T07:27:01.134Z,9.10
2018-02-25T07:29:36.111Z,9.23
2018-02-25T07:32:06.030Z,11.07
2018-02-25T07:34:34.057Z,9.82
2018-02-25T07:37:02.082Z,9.27
2018-02-25T07:39:38.329Z,10.65
2018-02-25T07:42:25.661Z,9.55
2018-02-25T07:44:59.969Z,8.85
2018-02-25T07:47:39.293Z,9.20
2018-02-25T07:50:11.018Z,8.85
2018-02-25T07:52:45.569Z,9.65
2018-02-25T07:55:37.188Z,9.32
2018-02-25T07:58:05.209Z,8.35
2018-02-25T08:00:33.237Z,8.20
2018-02-25T08:03:15.137Z,8.75
2018-02-25T08:05:56.969Z,8.20
2018-02-25T08:08:28.613Z,9.60
2018-02-25T08:11:00.349Z,7.53
2018-02-25T08:13:32.175Z,8.45
2018-02-25T08:16:00.933Z,8.00
2018-02-25T08:18:30.723Z,8.80
2018-02-25T08:20:59.637Z,8.23
2018-02-25T08:23:34.333Z,8.35
2018-02-25T08:26:09.888Z,6.28
2018-02-25T08:28:44.783Z,8.02
2018-02-25T08:31:12.832Z,7.50
2018-02-25T08:33:50.756Z,7.40
2018-02-25T08:36:23.053Z,6.70
2018-02-25T08:38:57.057Z,7.07
2018-02-25T08:41:26.017Z,8.02
2018-02-25T08:43:54.038Z,7.68
2018-02-25T08:46:26.013Z,9.23
2018-02-25T08:48:56.158Z,7.10
2018-02-25T08:51:26.133Z,7.10
2018-02-25T08:53:54.161Z,7.55
2018-02-25T08:56:22.185Z,7.20
2018-02-25T08:58:59.069Z,7.35
2018-02-25T09:01:28.753Z,7.07
2018-02-25T09:03:56.961Z,7.53
2018-02-25T09:06:25.769Z,7.47
2018-02-25T09:08:53.788Z,7.37
2018-02-25T09:11:22.786Z,6.40
2018-02-25T09:13:51.785Z,8.38
2018-02-25T09:16:29.841Z,7.97
2018-02-25T09:18:58.861Z,8.15
2018-02-25T09:21:33.438Z,7.60
2018-02-25T09:24:01.457Z,7.35
2018-02-25T09:26:39.400Z,8.05
2018-02-25T09:29:13.948Z,8.00
2018-02-25T09:31:54.592Z,9.00
2018-02-25T09:34:25.804Z,8.75
2018-02-25T09:36:59.544Z,9.40
2018-02-25T09:39:27.572Z,8.75
2018-02-25T09:41:55.593Z,8.65
2018-02-25T09:44:23.645Z,9.10
2018-02-25T09:46:56.216Z,8.73
2018-02-25T09:52:18.472Z,9.10
2018-02-25T09:54:46.508Z,7.50
2018-02-25T09:57:14.532Z,8.65
2018-02-25T09:59:44.484Z,8.30
2018-02-25T10:02:16.416Z,9.00
2018-02-25T10:04:58.572Z,8.65
2018-02-25T10:07:30.808Z,7.70
2018-02-25T10:09:58.837Z,8.02
2018-02-25T10:12:46.676Z,8.15
2018-02-25T10:15:14.712Z,7.72
2018-02-25T10:17:47.480Z,8.32
2018-02-25T10:20:17.472Z,7.75
2018-02-25T10:22:49.352Z,8.52
2018-02-25T10:25:17.380Z,8.18
2018-02-25T10:27:45.396Z,8.55
2018-02-25T10:30:14.312Z,8.75
2018-02-25T10:32:52.272Z,8.18
2018-02-25T10:35:33.016Z,9.88
2018-02-25T10:38:04.188Z,7.70
2018-02-25T10:40:33.116Z,8.57
2018-02-25T10:43:02.811Z,7.03
2018-02-25T10:45:42.684Z,7.75
2018-02-25T10:48:11.632Z,6.45
2018-02-25T10:50:41.540Z,6.80
2018-02-25T10:53:09.560Z,6.80
2018-02-25T10:55:41.368Z,6.60
2018-02-25T10:58:11.388Z,5.62
2018-02-25T11:00:41.315Z,5.97
2018-02-25T11:03:10.320Z,5.18
2018-02-25T11:05:45.740Z,5.20
2018-02-25T11:08:13.764Z,4.12
2018-02-25T11:10:52.428Z,5.55
2018-02-25T11:13:23.795Z,5.35
2018-02-25T11:15:53.828Z,6.50
2018-02-25T11:18:30.272Z,6.72
2018-02-25T11:20:58.356Z,6.12
2018-02-25T11:23:27.191Z,7.35
2018-02-25T11:25:58.948Z,5.35
2018-02-25T11:28:33.343Z,5.50
2018-02-25T11:31:02.343Z,6.35
2018-02-25T11:33:30.369Z,6.37
2018-02-25T11:35:58.392Z,5.70
2018-02-25T11:38:27.343Z,5.72
2018-02-25T11:40:56.176Z,6.78
2018-02-25T11:43:24.825Z,6.32
2018-02-25T11:45:58.228Z,8.30
2018-02-25T11:48:27.073Z,6.47
2018-02-25T11:50:56.936Z,6.40
2018-02-25T11:53:28.492Z,5.65
2018-02-25T11:55:57.376Z,6.95
2018-02-25T11:58:26.742Z,4.28
2018-02-25T12:00:58.779Z,4.37
2018-02-25T12:03:27.964Z,4.47
2018-02-25T12:05:58.036Z,6.25
2018-02-25T12:08:31.720Z,6.82
2018-02-25T12:10:59.796Z,7.20
2018-02-25T12:13:27.832Z,4.60
2018-02-25T12:15:55.896Z,4.25
2018-02-25T12:18:27.592Z,3.90
2018-02-25T12:20:57.556Z,4.05
2018-02-25T12:23:29.164Z,4.47
2018-02-25T12:25:58.168Z,4.60
2018-02-25T12:28:27.952Z,6.65
2018-02-25T12:30:57.880Z,5.62
2018-02-25T12:33:25.904Z,4.72
2018-02-25T12:35:56.883Z,5.87
2018-02-25T12:38:25.864Z,6.15
2018-02-25T12:40:54.795Z,5.15
2018-02-25T12:43:29.248Z,4.65
2018-02-25T12:45:57.292Z,4.80
2018-02-25T12:48:25.344Z,4.53
2018-02-25T12:50:58.572Z,4.53
2018-02-25T12:53:26.603Z,5.07
2018-02-25T12:55:58.428Z,5.25
2018-02-25T12:58:31.230Z,4.90
2018-02-25T13:01:05.608Z,5.25
2018-02-25T13:03:35.544Z,4.62
2018-02-25T13:06:04.479Z,4.28
2018-02-25T13:08:33.313Z,3.97
2018-02-25T13:11:01.311Z,4.03
2018-02-25T13:13:29.339Z,3.87
2018-02-25T13:15:58.268Z,4.25
2018-02-25T13:18:29.516Z,3.90
2018-02-25T13:20:57.580Z,3.90
2018-02-25T13:23:32.432Z,3.28
2018-02-25T13:26:01.235Z,2.60
2018-02-25T13:28:29.275Z,2.87
2018-02-25T13:30:57.315Z,4.05
2018-02-25T13:33:27.395Z,3.00
2018-02-25T13:35:59.015Z,2.40
2018-02-25T13:38:30.875Z,3.25
2018-02-25T13:40:58.968Z,2.78
2018-02-25T13:43:27.764Z,3.60
2018-02-25T13:45:55.812Z,2.00
2018-02-25T13:48:34.991Z,3.20
2018-02-25T13:51:03.024Z,3.55
2018-02-25T13:53:36.703Z,3.00
2018-02-25T13:56:05.619Z,2.67
2018-02-25T13:58:46.915Z,2.60
2018-02-25T14:01:16.895Z,2.78
2018-02-25T14:03:46.904Z,2.62
2018-02-25T14:06:14.935Z,3.12
2018-02-25T14:08:42.955Z,2.92
2018-02-25T14:11:12.863Z,2.62
2018-02-25T14:13:43.931Z,2.72
2018-02-25T14:16:12.707Z,2.40
2018-02-25T14:18:43.395Z,2.72
2018-02-25T14:21:17.184Z,2.50
2018-02-25T14:23:55.084Z,2.30
2018-02-25T14:26:26.319Z,2.58
2018-02-25T14:28:54.343Z,2.62
2018-02-25T14:31:33.739Z,2.67
2018-02-25T14:34:16.467Z,3.50
2018-02-25T14:36:48.147Z,3.20
2018-02-25T14:39:16.171Z,3.85
2018-02-25T14:41:44.195Z,2.95
2018-02-25T14:44:12.247Z,2.85
2018-02-25T14:46:42.323Z,3.42
2018-02-25T14:49:11.293Z,3.72
2018-02-25T14:51:46.056Z,3.65
2018-02-25T14:54:20.883Z,3.35
2018-02-25T14:56:53.932Z,4.35
2018-02-25T15:02:20.371Z,3.35
2018-02-25T15:04:50.287Z,2.85
2018-02-25T15:07:22.787Z,3.55
2018-02-25T15:09:51.839Z,2.97
2018-02-25T15:12:20.739Z,3.20
2018-02-25T15:14:49.711Z,2.90
2018-02-25T15:17:17.759Z,3.05
2018-02-25T15:19:47.719Z,4.00
2018-02-25T15:22:20.683Z,3.78
2018-02-25T15:24:53.574Z,3.40
2018-02-25T15:27:29.291Z,2.83
2018-02-25T15:29:57.295Z,3.30
2018-02-25T15:32:25.310Z,3.40
2018-02-25T15:34:54.242Z,4.12
2018-02-25T15:37:35.491Z,3.60
2018-02-25T15:40:05.443Z,3.58
2018-02-25T15:42:37.503Z,3.20
2018-02-25T15:45:09.587Z,3.60
2018-02-25T15:47:44.174Z,2.53
2018-02-25T15:50:15.339Z,3.03
2018-02-25T15:52:44.391Z,2.90
2018-02-25T15:55:12.411Z,3.80
2018-02-25T15:57:58.115Z,3.20
2018-02-25T16:00:28.815Z,3.20
2018-02-25T16:02:57.743Z,3.12
2018-02-25T16:05:31.207Z,2.90
2018-02-25T16:07:59.243Z,3.62
2018-02-25T16:10:30.911Z,11.05
2018-02-25T16:12:58.947Z,3.40
2018-02-25T16:15:27.891Z,3.28
2018-02-25T16:17:57.799Z,3.62
2018-02-25T16:20:25.831Z,3.15
2018-02-25T16:22:53.871Z,3.30
2018-02-25T16:25:24.551Z,3.45
2018-02-25T16:27:57.186Z,3.40
2018-02-25T16:30:25.966Z,3.17
2018-02-25T16:32:54.759Z,3.20
2018-02-25T16:35:32.070Z,3.00
2018-02-25T16:38:01.010Z,3.47
2018-02-25T16:40:33.167Z,2.78
2018-02-25T16:43:10.878Z,4.57
2018-02-25T16:45:40.987Z,6.87
2018-02-25T16:48:12.027Z,4.70
2018-02-25T16:50:45.914Z,4.37
2018-02-25T16:53:13.959Z,3.30
2018-02-25T16:55:52.531Z,3.80
2018-02-25T16:58:25.674Z,4.70
2018-02-25T17:00:55.639Z,4.22
2018-02-25T17:03:24.686Z,3.45
2018-02-25T17:05:57.582Z,3.90
2018-02-25T17:08:25.600Z,4.12
2018-02-25T17:10:57.966Z,3.15
2018-02-25T17:13:27.863Z,3.47
2018-02-25T17:15:56.855Z,3.60
2018-02-25T17:18:25.771Z,3.75
2018-02-25T17:20:54.551Z,3.35
2018-02-25T17:23:29.090Z,3.45
2018-02-25T17:25:57.874Z,3.65
2018-02-25T17:28:31.983Z,3.70
2018-02-25T17:31:15.263Z,3.75
2018-02-25T17:33:44.207Z,3.80
2018-02-25T17:36:14.119Z,4.22
2018-02-25T17:38:44.834Z,3.47
2018-02-25T17:41:18.463Z,4.00
2018-02-25T17:43:47.383Z,4.70
2018-02-25T17:46:17.143Z,5.93
2018-02-25T17:48:56.847Z,4.70
2018-02-25T17:51:24.866Z,5.22
2018-02-25T17:53:55.566Z,8.68
2018-02-25T17:56:23.591Z,15.68
2018-02-25T17:58:51.679Z,7.50
2018-02-25T18:01:22.359Z,5.10
2018-02-25T18:03:57.820Z,6.47
2018-02-25T18:06:36.802Z,5.50
2018-02-25T18:09:10.791Z,5.37
2018-02-25T18:11:56.230Z,4.50
2018-02-25T18:14:28.458Z,4.55
2018-02-25T18:17:03.307Z,5.40
2018-02-25T18:19:33.241Z,4.78
2018-02-25T18:22:09.106Z,4.82
2018-02-25T18:24:38.079Z,4.32
2018-02-25T18:27:20.183Z,4.40
2018-02-25T18:29:48.958Z,4.65
2018-02-25T18:32:18.762Z,4.72
2018-02-25T18:34:47.775Z,3.97
2018-02-25T18:37:17.675Z,4.50
2018-02-25T18:39:48.442Z,4.30
2018-02-25T18:42:17.378Z,4.50
2018-02-25T18:44:46.390Z,5.72
2018-02-25T18:47:26.442Z,8.23
2018-02-25T18:50:01.884Z,11.12
2018-02-25T18:52:33.330Z,4.45
2018-02-25T18:55:11.134Z,13.50
2018-02-25T18:57:51.534Z,7.95
2018-02-25T19:00:23.850Z,6.55
2018-02-25T19:02:56.538Z,19.83
2018-02-25T19:05:24.594Z,5.60
2018-02-25T19:08:05.414Z,6.10
2018-02-25T19:10:34.370Z,6.12
2018-02-25T19:13:14.094Z,5.62
2018-02-25T19:15:42.134Z,6.00
2018-02-25T19:18:17.901Z,6.22
2018-02-25T19:20:47.859Z,4.45
2018-02-25T19:23:17.941Z,4.30
2018-02-25T19:25:47.886Z,4.85
2018-02-25T19:28:23.670Z,5.22
2018-02-25T19:30:52.778Z,5.10
2018-02-25T19:33:32.118Z,6.12
2018-02-25T19:36:10.111Z,5.00
2018-02-25T19:38:48.114Z,4.90
2018-02-25T19:41:27.634Z,5.70
2018-02-25T19:43:58.370Z,5.37
2018-02-25T19:46:31.722Z,7.22
2018-02-25T19:49:00.318Z,4.50
2018-02-25T19:51:30.350Z,4.37
2018-02-25T19:54:00.390Z,4.85
2018-02-25T19:56:29.390Z,4.15
2018-02-25T19:58:58.378Z,4.37
2018-02-25T20:01:31.646Z,4.10
2018-02-25T20:04:05.342Z,4.32
2018-02-25T20:06:39.866Z,4.90
2018-02-25T20:09:08.788Z,4.30
2018-02-25T20:11:41.825Z,5.37
2018-02-25T20:14:10.902Z,7.22
2018-02-25T20:16:40.870Z,4.45
2018-02-25T20:19:10.734Z,5.32
2018-02-25T20:21:39.754Z,5.78
2018-02-25T20:24:14.310Z,4.05
2018-02-25T20:26:46.230Z,3.97
2018-02-25T20:29:16.026Z,5.97
2018-02-25T20:31:45.054Z,4.07
2018-02-25T20:34:13.846Z,4.40
2018-02-25T20:36:46.104Z,5.10
2018-02-25T20:39:15.097Z,5.10
2018-02-25T20:41:48.541Z,4.95
2018-02-25T20:44:16.570Z,3.80
2018-02-25T20:46:44.646Z,4.78
2018-02-25T20:49:18.352Z,5.03
2018-02-25T20:51:47.166Z,4.57
2018-02-25T20:54:15.206Z,3.62
2018-02-25T20:56:44.970Z,4.87
2018-02-25T20:59:15.194Z,4.22
2018-02-25T21:01:48.094Z,11.20
2018-02-25T21:04:16.133Z,9.95
2018-02-25T21:06:44.173Z,11.75
2018-02-25T21:09:15.006Z,8.43
2018-02-25T21:11:43.942Z,5.07
2018-02-25T21:14:12.882Z,6.87
2018-02-25T21:16:41.853Z,7.43
2018-02-25T21:19:10.827Z,7.85
2018-02-25T21:21:38.854Z,7.57
2018-02-25T21:24:07.890Z,4.97
2018-02-25T21:26:39.678Z,6.28
2018-02-25T21:29:08.642Z,4.90
2018-02-25T21:31:36.670Z,3.85
2018-02-25T21:34:06.634Z,4.00
2018-02-25T21:36:36.378Z,5.10
2018-02-25T21:39:04.434Z,3.97
2018-02-25T21:41:40.022Z,3.83
2018-02-25T21:44:09.982Z,4.37
2018-02-25T21:46:38.962Z,4.62
2018-02-25T21:49:08.044Z,4.80
2018-02-25T21:51:36.165Z,3.95
2018-02-25T21:54:17.585Z,3.83
2018-02-25T21:56:52.318Z,4.10
2018-02-25T21:59:38.922Z,3.97
2018-02-25T22:02:17.529Z,4.22
2018-02-25T22:04:57.181Z,3.67
2018-02-25T22:07:30.142Z,4.72
2018-02-25T22:10:00.186Z,4.05
2018-02-25T22:12:35.841Z,4.53
2018-02-25T22:15:07.873Z,4.78
2018-02-25T22:17:36.901Z,4.15
2018-02-25T22:20:04.938Z,3.53
2018-02-25T22:22:33.281Z,4.05
2018-02-25T22:25:07.466Z,4.75
2018-02-25T22:27:35.510Z,3.60
2018-02-25T22:30:16.858Z,4.03
2018-02-25T22:32:45.685Z,3.85
2018-02-25T22:35:15.649Z,4.17
2018-02-25T22:37:57.109Z,3.95
2018-02-25T22:40:30.637Z,4.18
2018-02-25T22:42:59.489Z,5.05
2018-02-25T22:45:27.689Z,3.80
2018-02-25T22:47:55.816Z,3.70
2018-02-25T22:50:28.357Z,4.10
2018-02-25T22:52:56.429Z,3.42
2018-02-25T22:55:28.417Z,3.47
2018-02-25T22:58:01.506Z,3.40
2018-02-25T23:00:30.592Z,4.20
2018-02-25T23:03:08.513Z,4.80
2018-02-25T23:05:40.637Z,4.87
2018-02-25T23:08:13.718Z,4.85
2018-02-25T23:10:42.561Z,4.12
2018-02-25T23:13:15.984Z,4.70
2018-02-25T23:15:47.253Z,5.25
2018-02-25T23:18:16.257Z,4.37
2018-02-25T23:20:54.957Z,3.97
2018-02-25T23:23:27.144Z,4.05
2018-02-25T23:25:57.144Z,4.80
2018-02-25T23:28:28.073Z,3.92
2018-02-25T23:30:57.745Z,4.78
2018-02-25T23:33:37.681Z,4.30
2018-02-25T23:36:06.633Z,4.50
2018-02-25T23:38:40.053Z,4.85
2018-02-25T23:41:12.081Z,4.97
2018-02-25T23:43:45.305Z,4.65
2018-02-25T23:46:20.276Z,4.85
2018-02-25T23:48:48.420Z,5.03
2018-02-25T23:51:28.245Z,4.12
2018-02-25T23:53:56.324Z,4.82
2018-02-25T23:56:24.390Z,4.70
2018-02-25T23:58:55.409Z,4.15
